Emerald Leader — C6WP4 — position and weather

sailwx.info

Track history (hours):
 
Tides and Currents Weather Stations Pressure Air Temp Water Temp Dewpoint Dewpoint Depression Visibility Wind Speed Wind Dir Waves Ship Positions

Emerald Leader

Last reported at 2014-Jul-25 15:10 UTC. Time now 2014-Jul-25 16:04 UTC.
Position N 51°19' E 003°13'.

Length 176 m; draft 7.9 m.

Type: Cargo ship. MMSI: 308688000.

Date/timePositionNaut miles runAvg speedWind from/ knotsBaromVisibWave heightAir tempDewpointWater temp
2014-Jul-25 15:10N 51°19' E 003°13'0 0.0
2014-Jul-25 11:07N 51°19' E 003°13'0 0.0
2014-Jul-25 09:22N 51°19' E 003°13'0 0.0
2014-Jul-25 07:28N 51°19' E 003°13'0 0.0
2014-Jul-25 06:31N 51°19' E 003°13'0 0.0
2014-Jul-25 05:28N 51°19' E 003°13'0 0.0
2014-Jul-25 04:28N 51°19' E 003°13'0 0.0
2014-Jul-25 03:31N 51°19' E 003°13'0 0.0
2014-Jul-25 02:04N 51°19' E 003°13'0 0.0
2014-Jul-25 01:28N 51°19' E 003°13'0 0.0
2014-Jul-25 00:25N 51°19' E 003°13'1 1.2
2014-Jul-24 23:32N 51°18' E 003°14'0 0.0
2014-Jul-24 22:32N 51°18' E 003°14'0 0.0
2014-Jul-24 21:32N 51°18' E 003°14'0 0.0
2014-Jul-24 20:32N 51°18' E 003°14'0 0.0
2014-Jul-24 19:32N 51°18' E 003°14'0 0.0
2014-Jul-24 18:32N 51°18' E 003°14'0 0.0
2014-Jul-24 17:26N 51°18' E 003°14'0 0.0
2014-Jul-24 16:23N 51°18' E 003°14'0 0.0
2014-Jul-24 15:32N 51°18' E 003°14'0 0.0
2014-Jul-24 14:32N 51°18' E 003°14'0 0.0
2014-Jul-24 13:32N 51°18' E 003°14'0 0.0
2014-Jul-24 12:32N 51°18' E 003°14'2 2.1
2014-Jul-24 11:33N 51°20' E 003°13'6 5.7
2014-Jul-24 10:33N 51°24' E 003°06'1515.1
2014-Jul-24 09:34N 51°25' E 002°42'1815.8
2014-Jul-24 08:26N 51°42' E 002°45'1618.2
2014-Jul-24 07:34N 51°58' E 002°48'1818.0
2014-Jul-24 06:33N 52°14' E 003°02'2217.3
2014-Jul-24 05:18N 52°32' E 003°24'1316.3
2014-Jul-24 04:30N 52°42' E 003°37'1515.6
2014-Jul-24 03:33N 52°54' E 003°52'1515.0
2014-Jul-24 02:33N 53°04' E 004°10'1514.8
2014-Jul-24 01:33N 53°14' E 004°28'1515.4
2014-Jul-24 00:34N 53°28' E 004°37'1716.8
2014-Jul-23 23:34N 53°35' E 005°03'1717.4
2014-Jul-23 22:33N 53°41' E 005°31'1716.9
2014-Jul-23 21:34N 53°46' E 005°58'1616.2
2014-Jul-23 20:33N 53°51' E 006°24'4515.0
2014-Jul-23 17:34N 53°58' E 007°39'1414.1
2014-Jul-23 16:32N 53°51' E 008°00'1616.4
2014-Jul-23 15:34N 53°41' E 008°22'10 9.3
2014-Jul-23 14:32N 53°34' E 008°33'0 0.5
2014-Jul-23 13:31N 53°34' E 008°34'0 0.0
2014-Jul-23 12:31N 53°34' E 008°34'0 0.0
2014-Jul-23 11:31N 53°34' E 008°34'0 0.0
2014-Jul-23 10:31N 53°34' E 008°34'0 0.0
2014-Jul-23 09:31N 53°34' E 008°34'0 0.0
2014-Jul-23 08:31N 53°34' E 008°34'0 0.0
2014-Jul-23 07:31N 53°34' E 008°34'0 0.0
2014-Jul-23 06:31N 53°34' E 008°34'0 0.0
2014-Jul-23 05:31N 53°34' E 008°34'0 0.0
2014-Jul-23 04:31N 53°34' E 008°34'0 0.0
2014-Jul-23 03:25N 53°34' E 008°34'0 0.0
2014-Jul-23 02:31N 53°34' E 008°34'0 0.0
2014-Jul-23 01:31N 53°34' E 008°34'0 0.0
2014-Jul-23 00:31N 53°34' E 008°34'0 0.0
2014-Jul-22 23:28N 53°34' E 008°34'0 0.0
2014-Jul-22 22:31N 53°34' E 008°34'0 0.0
2014-Jul-22 21:28N 53°34' E 008°34'0 0.0
2014-Jul-22 20:31N 53°34' E 008°34'0 0.0
2014-Jul-22 19:31N 53°34' E 008°34'0 0.0
2014-Jul-22 18:31N 53°34' E 008°34'0 0.0
2014-Jul-22 17:31N 53°34' E 008°34'0 0.0
2014-Jul-22 16:31N 53°34' E 008°34'0 0.0
2014-Jul-22 15:31N 53°34' E 008°34'0 0.0
2014-Jul-22 14:31N 53°34' E 008°34'0 0.0
2014-Jul-22 13:31N 53°34' E 008°34'0 0.0
2014-Jul-22 12:31N 53°34' E 008°34'0 0.0
2014-Jul-22 11:31N 53°34' E 008°34'0 0.0
2014-Jul-22 10:31N 53°34' E 008°34'0 0.0
2014-Jul-22 09:31N 53°34' E 008°34'0 0.0
2014-Jul-22 08:31N 53°34' E 008°34'0 0.0
2014-Jul-22 07:31N 53°34' E 008°34'0 0.0
2014-Jul-22 06:31N 53°34' E 008°34'0 0.0
2014-Jul-22 05:31N 53°34' E 008°34'0 0.0
2014-Jul-22 04:31N 53°34' E 008°34'0 0.2
2014-Jul-22 03:34N 53°34' E 008°33'1 0.5
2014-Jul-22 02:33N 53°34' E 008°33'7 6.6
2014-Jul-22 01:33N 53°39' E 008°25'1514.7
2014-Jul-22 00:33N 53°49' E 008°07'1313.0
2014-Jul-21 23:33N 53°53' E 007°46'6 5.6
2014-Jul-21 22:31N 53°54' E 007°36'5 4.8
2014-Jul-21 21:32N 53°54' E 007°29'2310.7
2014-Jul-21 19:23N 53°49' E 006°50'1314.9
2014-Jul-21 18:30N 53°46' E 006°29'1415.2
2014-Jul-21 17:33N 53°42' E 006°05'1615.6
2014-Jul-21 16:33N 53°37' E 005°40'1616.1
2014-Jul-21 15:33N 53°32' E 005°15'1616.4
2014-Jul-21 14:34N 53°26' E 004°49'2116.3
2014-Jul-21 13:16N 53°09' E 004°29'8216.1
2014-Jul-21 08:10N 52°06' E 003°03'2715.8
2014-Jul-21 06:26N 51°45' E 002°35'1415.4
2014-Jul-21 05:33N 51°34' E 002°20'1514.8
2014-Jul-21 04:33N 51°21' E 002°10'1413.6
2014-Jul-21 03:34N 51°10' E 001°56'1414.0
2014-Jul-21 02:34N 51°02' E 001°39'1813.5
2014-Jul-21 01:14N 50°46' E 001°26'2414.4
2014-Jul-20 23:33N 50°29' E 000°59'1514.8
2014-Jul-20 22:34N 50°25' E 000°37'1514.7
2014-Jul-20 21:34N 50°21' E 000°15'4414.5
2014-Jul-20 18:31N 50°08' W 000°51'1515.3
2014-Jul-20 17:33N 50°04' W 001°14'  
2014-Jul-17 04:30N 39°59' W 009°45'1515.5
2014-Jul-17 03:32N 39°44' W 009°49'3015.1
2014-Jul-17 01:33N 39°14' W 009°50'1515.0
2014-Jul-17 00:33N 38°59' W 009°51'1515.1
2014-Jul-16 23:33N 38°44' W 009°52'1515.2
2014-Jul-16 22:33N 38°29' W 009°48'1514.9
2014-Jul-16 21:33N 38°15' W 009°44'1514.9
2014-Jul-16 20:33N 38°00' W 009°39'1514.6
2014-Jul-16 19:33N 37°46' W 009°36'1514.8
2014-Jul-16 18:33N 37°31' W 009°31'1514.9
2014-Jul-16 17:33N 37°17' W 009°27'1515.1
2014-Jul-16 16:33N 37°02' W 009°23'1514.8
2014-Jul-16 15:33N 36°49' W 009°16'2215.0
2014-Jul-16 14:07N 36°40' W 008°51'815.1
2014-Jul-16 13:34N 36°37' W 008°41'1515.3
2014-Jul-16 12:33N 36°32' W 008°23'1715.7
2014-Jul-16 11:29N 36°27' W 008°03'26614.8
2014-Jul-15 17:33N 36°24' W 002°33'1615.9
2014-Jul-15 16:33N 36°27' W 002°14'1716.3
2014-Jul-15 15:28N 36°29' W 001°52'  
Track history (hours):
 
Tides and Currents Weather Stations Pressure Air Temp Water Temp Dewpoint Dewpoint Depression Visibility Wind Speed Wind Dir Waves Ship Positions

Emerald Leader

Last reported at 2014-Jul-25 15:10 UTC. Time now 2014-Jul-25 16:04 UTC.
Position N 51°19' E 003°13'.

Length 176 m; draft 7.9 m.

Type: Cargo ship. MMSI: 308688000.

Date/timePositionNaut miles runAvg speedWind from/ knotsBaromVisibWave heightAir tempDewpointWater temp
2014-Jul-25 15:10N 51°19' E 003°13'0 0.0
2014-Jul-25 11:07N 51°19' E 003°13'0 0.0
2014-Jul-25 09:22N 51°19' E 003°13'0 0.0
2014-Jul-25 07:28N 51°19' E 003°13'0 0.0
2014-Jul-25 06:31N 51°19' E 003°13'0 0.0
2014-Jul-25 05:28N 51°19' E 003°13'0 0.0
2014-Jul-25 04:28N 51°19' E 003°13'0 0.0
2014-Jul-25 03:31N 51°19' E 003°13'0 0.0
2014-Jul-25 02:04N 51°19' E 003°13'0 0.0
2014-Jul-25 01:28N 51°19' E 003°13'0 0.0
2014-Jul-25 00:25N 51°19' E 003°13'1 1.2
2014-Jul-24 23:32N 51°18' E 003°14'0 0.0
2014-Jul-24 22:32N 51°18' E 003°14'0 0.0
2014-Jul-24 21:32N 51°18' E 003°14'0 0.0
2014-Jul-24 20:32N 51°18' E 003°14'0 0.0
2014-Jul-24 19:32N 51°18' E 003°14'0 0.0
2014-Jul-24 18:32N 51°18' E 003°14'0 0.0
2014-Jul-24 17:26N 51°18' E 003°14'0 0.0
2014-Jul-24 16:23N 51°18' E 003°14'0 0.0
2014-Jul-24 15:32N 51°18' E 003°14'0 0.0
2014-Jul-24 14:32N 51°18' E 003°14'0 0.0
2014-Jul-24 13:32N 51°18' E 003°14'0 0.0
2014-Jul-24 12:32N 51°18' E 003°14'2 2.1
2014-Jul-24 11:33N 51°20' E 003°13'6 5.7
2014-Jul-24 10:33N 51°24' E 003°06'1515.1
2014-Jul-24 09:34N 51°25' E 002°42'1815.8
2014-Jul-24 08:26N 51°42' E 002°45'1618.2
2014-Jul-24 07:34N 51°58' E 002°48'1818.0
2014-Jul-24 06:33N 52°14' E 003°02'2217.3
2014-Jul-24 05:18N 52°32' E 003°24'1316.3
2014-Jul-24 04:30N 52°42' E 003°37'1515.6
2014-Jul-24 03:33N 52°54' E 003°52'1515.0
2014-Jul-24 02:33N 53°04' E 004°10'1514.8
2014-Jul-24 01:33N 53°14' E 004°28'1515.4
2014-Jul-24 00:34N 53°28' E 004°37'1716.8
2014-Jul-23 23:34N 53°35' E 005°03'1717.4
2014-Jul-23 22:33N 53°41' E 005°31'1716.9
2014-Jul-23 21:34N 53°46' E 005°58'1616.2
2014-Jul-23 20:33N 53°51' E 006°24'4515.0
2014-Jul-23 17:34N 53°58' E 007°39'1414.1
2014-Jul-23 16:32N 53°51' E 008°00'1616.4
2014-Jul-23 15:34N 53°41' E 008°22'10 9.3
2014-Jul-23 14:32N 53°34' E 008°33'0 0.5
2014-Jul-23 13:31N 53°34' E 008°34'0 0.0
2014-Jul-23 12:31N 53°34' E 008°34'0 0.0
2014-Jul-23 11:31N 53°34' E 008°34'0 0.0
2014-Jul-23 10:31N 53°34' E 008°34'0 0.0
2014-Jul-23 09:31N 53°34' E 008°34'0 0.0
2014-Jul-23 08:31N 53°34' E 008°34'0 0.0
2014-Jul-23 07:31N 53°34' E 008°34'0 0.0
2014-Jul-23 06:31N 53°34' E 008°34'0 0.0
2014-Jul-23 05:31N 53°34' E 008°34'0 0.0
2014-Jul-23 04:31N 53°34' E 008°34'0 0.0
2014-Jul-23 03:25N 53°34' E 008°34'0 0.0
2014-Jul-23 02:31N 53°34' E 008°34'0 0.0
2014-Jul-23 01:31N 53°34' E 008°34'0 0.0
2014-Jul-23 00:31N 53°34' E 008°34'0 0.0
2014-Jul-22 23:28N 53°34' E 008°34'0 0.0
2014-Jul-22 22:31N 53°34' E 008°34'0 0.0
2014-Jul-22 21:28N 53°34' E 008°34'0 0.0
2014-Jul-22 20:31N 53°34' E 008°34'0 0.0
2014-Jul-22 19:31N 53°34' E 008°34'0 0.0
2014-Jul-22 18:31N 53°34' E 008°34'0 0.0
2014-Jul-22 17:31N 53°34' E 008°34'0 0.0
2014-Jul-22 16:31N 53°34' E 008°34'0 0.0
2014-Jul-22 15:31N 53°34' E 008°34'0 0.0
2014-Jul-22 14:31N 53°34' E 008°34'0 0.0
2014-Jul-22 13:31N 53°34' E 008°34'0 0.0
2014-Jul-22 12:31N 53°34' E 008°34'0 0.0
2014-Jul-22 11:31N 53°34' E 008°34'0 0.0
2014-Jul-22 10:31N 53°34' E 008°34'0 0.0
2014-Jul-22 09:31N 53°34' E 008°34'0 0.0
2014-Jul-22 08:31N 53°34' E 008°34'0 0.0
2014-Jul-22 07:31N 53°34' E 008°34'0 0.0
2014-Jul-22 06:31N 53°34' E 008°34'0 0.0
2014-Jul-22 05:31N 53°34' E 008°34'0 0.0
2014-Jul-22 04:31N 53°34' E 008°34'0 0.2
2014-Jul-22 03:34N 53°34' E 008°33'1 0.5
2014-Jul-22 02:33N 53°34' E 008°33'7 6.6
2014-Jul-22 01:33N 53°39' E 008°25'1514.7
2014-Jul-22 00:33N 53°49' E 008°07'1313.0
2014-Jul-21 23:33N 53°53' E 007°46'6 5.6
2014-Jul-21 22:31N 53°54' E 007°36'5 4.8
2014-Jul-21 21:32N 53°54' E 007°29'2310.7
2014-Jul-21 19:23N 53°49' E 006°50'1314.9
2014-Jul-21 18:30N 53°46' E 006°29'1415.2
2014-Jul-21 17:33N 53°42' E 006°05'1615.6
2014-Jul-21 16:33N 53°37' E 005°40'1616.1
2014-Jul-21 15:33N 53°32' E 005°15'1616.4
2014-Jul-21 14:34N 53°26' E 004°49'2116.3
2014-Jul-21 13:16N 53°09' E 004°29'8216.1
2014-Jul-21 08:10N 52°06' E 003°03'2715.8
2014-Jul-21 06:26N 51°45' E 002°35'1415.4
2014-Jul-21 05:33N 51°34' E 002°20'1514.8
2014-Jul-21 04:33N 51°21' E 002°10'1413.6
2014-Jul-21 03:34N 51°10' E 001°56'1414.0
2014-Jul-21 02:34N 51°02' E 001°39'1813.5
2014-Jul-21 01:14N 50°46' E 001°26'2414.4
2014-Jul-20 23:33N 50°29' E 000°59'1514.8
2014-Jul-20 22:34N 50°25' E 000°37'1514.7
2014-Jul-20 21:34N 50°21' E 000°15'4414.5
2014-Jul-20 18:31N 50°08' W 000°51'1515.3
2014-Jul-20 17:33N 50°04' W 001°14'  
2014-Jul-17 04:30N 39°59' W 009°45'1515.5
2014-Jul-17 03:32N 39°44' W 009°49'3015.1
2014-Jul-17 01:33N 39°14' W 009°50'1515.0
2014-Jul-17 00:33N 38°59' W 009°51'1515.1
2014-Jul-16 23:33N 38°44' W 009°52'1515.2
2014-Jul-16 22:33N 38°29' W 009°48'1514.9
2014-Jul-16 21:33N 38°15' W 009°44'1514.9
2014-Jul-16 20:33N 38°00' W 009°39'1514.6
2014-Jul-16 19:33N 37°46' W 009°36'1514.8
2014-Jul-16 18:33N 37°31' W 009°31'1514.9
2014-Jul-16 17:33N 37°17' W 009°27'1515.1
2014-Jul-16 16:33N 37°02' W 009°23'1514.8
2014-Jul-16 15:33N 36°49' W 009°16'2215.0
2014-Jul-16 14:07N 36°40' W 008°51'815.1
2014-Jul-16 13:34N 36°37' W 008°41'1515.3
2014-Jul-16 12:33N 36°32' W 008°23'1715.7
2014-Jul-16 11:29N 36°27' W 008°03'26614.8
2014-Jul-15 17:33N 36°24' W 002°33'1615.9
2014-Jul-15 16:33N 36°27' W 002°14'1716.3
2014-Jul-15 15:28N 36°29' W 001°52'  

Dump ship's entire track history